Thunder radar more information blitzortung!


Radar de pluja more information rain snow radar


Visita la nostra xarxa de llocs de meteo:

Template documentation
and downloads

And another site



No particular awareness of the weather is required.    There are no Weather-warnings

Pagina Historial Weather Underground text

Diari Resum May 11, 2017 Unitats:  Mètric    Imperial   Tant
« Previous Dia
SegĂźent Dia »
Diari Setmana Mensual Anual Personalitzada
  Maxima: Minima: Media:
Temperatura: -17.8 °C -10.9 °C -9.1 °C
Punt de rosada: -17.8 °C -12.3 °C -10.8 °C
Humitat: Humidity % 69 % 82 %
Wind Speed: 0 km/h 0 km/h 6.6 km/h
RĂ fegues de vent: 0 km/h - -
Vent:- - SE
Pression baro: 0 hPa 33856.6 hPa -
Precipitacions: 355.6 mm    
Historical Graphs
 
 
Dades de taula per May 11, 2017
Temps Temperatura Punt de rosada Pression baro Vent Wind Speed RĂ fegues de vent Humitat Rainfall Rate (Hourly)
-17.8 °C -17.8 °C 0 hPa Calm     Humidity % 0 mm
00:00 -9.6 °C -11.3 °C 33924.3 hPa NE 7.7 km/h 12.9 km/h 81 % 0 mm
00:02 -9 °C -11 °C 33992.1 hPa NE 11.9 km/h 11.9 km/h 79 % 0 mm
00:07 -9.1 °C -10.9 °C 33992.1 hPa ENE 15.6 km/h 15.6 km/h 80 % 0 mm
00:10 -9.6 °C -11.3 °C 33924.3 hPa NE 7.7 km/h 10.3 km/h 81 % 0 mm
00:20 -9.6 °C -11.4 °C 33924.3 hPa NE 7.7 km/h 10.3 km/h 81 % 0 mm
00:30 -9.6 °C -11.4 °C 33924.3 hPa NE 7.7 km/h 10.3 km/h 81 % 0 mm
00:40 -9.6 °C -11.3 °C 33924.3 hPa NE 5.1 km/h 10.3 km/h 81 % 0 mm
00:50 -9.6 °C -11.3 °C 33890.5 hPa NE 5.1 km/h 10.3 km/h 81 % 0 mm
01:00 -9.6 °C -11.3 °C 33890.5 hPa NE 2.6 km/h 5.1 km/h 81 % 0 mm
01:10 -9.6 °C -11.4 °C 33890.5 hPa NE 2.6 km/h 7.7 km/h 80 % 0 mm
01:20 -9.6 °C -11.4 °C 33890.5 hPa NE 7.7 km/h 7.7 km/h 80 % 0 mm
01:30 -9.6 °C -11.5 °C 33890.5 hPa NE 5.1 km/h 7.7 km/h 80 % 0 mm
01:40 -9.6 °C -11.4 °C 33856.6 hPa NE 5.1 km/h 7.7 km/h 80 % 0 mm
01:50 -9.6 °C -11.3 °C 33856.6 hPa ENE 5.1 km/h 12.9 km/h 81 % 0 mm
02:00 -9.6 °C -11.4 °C 33856.6 hPa East 7.7 km/h 10.3 km/h 81 % 0 mm
02:10 -9.6 °C -11.3 °C 33856.6 hPa East 5.1 km/h 15.6 km/h 81 % 0 mm
02:20 -9.6 °C -11.4 °C 33856.6 hPa East 5.1 km/h 15.6 km/h 81 % 0 mm
02:30 -9.6 °C -11.4 °C 33856.6 hPa East 5.1 km/h 7.7 km/h 81 % 0 mm
02:40 -9.6 °C -11.4 °C 33856.6 hPa East 5.1 km/h 15.6 km/h 81 % 0 mm
02:50 -9.6 °C -11.4 °C 33856.6 hPa East 7.7 km/h 15.6 km/h 81 % 0 mm
03:00 -9.6 °C -11.4 °C 33856.6 hPa ENE 2.6 km/h 10.3 km/h 81 % 0 mm
03:10 -9.7 °C -11.4 °C 33856.6 hPa ENE 7.7 km/h 10.3 km/h 81 % 0 mm
03:20 -9.7 °C -11.3 °C 33856.6 hPa NE 5.1 km/h 10.3 km/h 83 % 0 mm
03:30 -9.8 °C -11.3 °C 33856.6 hPa ENE 2.6 km/h 7.7 km/h 83 % 0 mm
03:40 -9.8 °C -11.3 °C 33890.5 hPa East 2.6 km/h 7.7 km/h 84 % 0 mm
03:50 -9.8 °C -11.3 °C 33856.6 hPa ENE 7.7 km/h 7.7 km/h 84 % 0 mm
04:00 -9.8 °C -11.2 °C 33856.6 hPa NE 7.7 km/h 7.7 km/h 85 % 0 mm
04:10 -9.7 °C -11 °C 33856.6 hPa NNE 2.6 km/h 7.7 km/h 86 % 0 mm
04:20 -9.8 °C -11.1 °C 33856.6 hPa NE 5.1 km/h 7.7 km/h 86 % 0 mm
04:30 -9.7 °C -11 °C 33856.6 hPa Calm   5.1 km/h 86 % 0 mm
04:40 -9.8 °C -11.1 °C 33890.5 hPa Calm   5.1 km/h 86 % 50.8 mm
09:47 -9.8 °C -11 °C 33890.5 hPa Calm   6.3 km/h 87 % 104.14 mm
09:52 -9.8 °C -10.9 °C 33890.5 hPa Calm     88 % 134.62 mm
09:57 -9.9 °C -11 °C 33856.6 hPa ENE 9 km/h 9 km/h 88 % 134.62 mm
10:02 -9.9 °C -11 °C 33856.6 hPa ENE 9 km/h 9 km/h 88 % 134.62 mm
10:03 -9.9 °C -11 °C 33856.6 hPa ENE 9 km/h 9 km/h 88 % 134.62 mm
10:08 -9.9 °C -11 °C 33856.6 hPa ENE 9 km/h 9 km/h 88 % 134.62 mm
10:13 -9.9 °C -11 °C 33856.6 hPa ENE 9 km/h 9 km/h 88 % 134.62 mm
10:18 -9.9 °C -11 °C 33856.6 hPa ENE 9 km/h 9 km/h 88 % 134.62 mm
10:23 -9.9 °C -11 °C 33856.6 hPa ENE 9 km/h 9 km/h 88 % 134.62 mm
10:28 -9.9 °C -11 °C 33856.6 hPa ENE 9 km/h 9 km/h 88 % 134.62 mm
10:33 -9.9 °C -11 °C 33856.6 hPa ENE 9 km/h 9 km/h 88 % 134.62 mm
10:38 -9.9 °C -11 °C 33856.6 hPa ENE 9 km/h 9 km/h 88 % 134.62 mm
10:43 -9.9 °C -11 °C 33856.6 hPa ENE 9 km/h 9 km/h 88 % 83.82 mm
10:48 -9.9 °C -11 °C 33856.6 hPa ENE 9 km/h 9 km/h 88 % 33.02 mm
10:53 -9.9 °C -11 °C 33856.6 hPa ENE 9 km/h 9 km/h 88 % 0 mm
10:58 -9.9 °C -11 °C 33856.6 hPa ENE 9 km/h 9 km/h 88 % 0 mm
11:03 -9.9 °C -11 °C 33856.6 hPa ENE 9 km/h 9 km/h 88 % 0 mm
11:08 -9.9 °C -11 °C 33856.6 hPa ENE 9 km/h 9 km/h 88 % 0 mm
11:13 -9.9 °C -11 °C 33856.6 hPa ENE 9 km/h 9 km/h 88 % 0 mm
11:18 -9.9 °C -11 °C 33856.6 hPa ENE 9 km/h 9 km/h 88 % 0 mm
11:23 -9.9 °C -11 °C 33856.6 hPa ENE 9 km/h 9 km/h 88 % 0 mm
11:28 -9.9 °C -11 °C 33856.6 hPa ENE 9 km/h 9 km/h 88 % 0 mm
11:33 -9.9 °C -11 °C 33856.6 hPa ENE 9 km/h 9 km/h 88 % 0 mm
11:38 -9.9 °C -11 °C 33856.6 hPa ENE 9 km/h 9 km/h 88 % 0 mm
11:43 -9.9 °C -11 °C 33856.6 hPa ENE 9 km/h 9 km/h 88 % 0 mm
11:48 -9.9 °C -11 °C 33856.6 hPa ENE 9 km/h 9 km/h 88 % 0 mm
11:53 -9.9 °C -11 °C 33856.6 hPa ENE 9 km/h 9 km/h 88 % 0 mm
11:58 -9.9 °C -11 °C 33856.6 hPa ENE 9 km/h 9 km/h 88 % 0 mm
12:03 -9.9 °C -11 °C 33856.6 hPa ENE 9 km/h 9 km/h 88 % 0 mm
12:08 -9.9 °C -11 °C 33856.6 hPa ENE 9 km/h 9 km/h 88 % 0 mm
12:13 -9.9 °C -11 °C 33856.6 hPa ENE 9 km/h 9 km/h 88 % 0 mm
12:18 -9.9 °C -11 °C 33856.6 hPa ENE 9 km/h 9 km/h 88 % 0 mm
12:23 -9.9 °C -11 °C 33856.6 hPa ENE 9 km/h 9 km/h 88 % 0 mm
12:28 -9.9 °C -11 °C 33856.6 hPa ENE 9 km/h 9 km/h 88 % 0 mm
12:29 -9.9 °C -11 °C 33856.6 hPa ENE 9 km/h 9 km/h 88 % 0 mm
12:34 -9.9 °C -11 °C 33856.6 hPa ENE 9 km/h 9 km/h 88 % 0 mm
12:39 -9.9 °C -11 °C 33856.6 hPa ENE 9 km/h 9 km/h 88 % 0 mm
12:44 -9.9 °C -11 °C 33856.6 hPa ENE 9 km/h 9 km/h 88 % 0 mm
12:49 -9.9 °C -11 °C 33856.6 hPa ENE 9 km/h 9 km/h 88 % 0 mm
12:54 -9.9 °C -11 °C 33856.6 hPa ENE 9 km/h 9 km/h 88 % 0 mm
12:59 -9.9 °C -11 °C 33856.6 hPa ENE 9 km/h 9 km/h 88 % 0 mm
13:04 -9.9 °C -11 °C 33856.6 hPa ENE 9 km/h 9 km/h 88 % 0 mm
13:09 -9.9 °C -11 °C 33856.6 hPa ENE 9 km/h 9 km/h 88 % 0 mm
13:14 -9.9 °C -11 °C 33856.6 hPa ENE 9 km/h 9 km/h 88 % 0 mm
13:19 -9.9 °C -11 °C 33856.6 hPa ENE 9 km/h 9 km/h 88 % 0 mm
13:24 -9.9 °C -11 °C 33856.6 hPa ENE 9 km/h 9 km/h 88 % 0 mm
13:29 -9.9 °C -11 °C 33856.6 hPa ENE 9 km/h 9 km/h 88 % 0 mm
13:34 -9.9 °C -11 °C 33856.6 hPa ENE 9 km/h 9 km/h 88 % 0 mm
13:39 -9.9 °C -11 °C 33856.6 hPa ENE 9 km/h 9 km/h 88 % 0 mm
13:44 -9.9 °C -11 °C 33856.6 hPa ENE 9 km/h 9 km/h 88 % 0 mm
13:49 -9.9 °C -11 °C 33856.6 hPa ENE 9 km/h 9 km/h 88 % 0 mm
13:54 -9.9 °C -11 °C 33856.6 hPa ENE 9 km/h 9 km/h 88 % 0 mm
13:59 -9.9 °C -11 °C 33856.6 hPa ENE 9 km/h 9 km/h 88 % 0 mm
14:04 -9.9 °C -11 °C 33856.6 hPa ENE 9 km/h 9 km/h 88 % 0 mm
14:09 -9.9 °C -11 °C 33856.6 hPa ENE 9 km/h 9 km/h 88 % 0 mm
14:14 -9.9 °C -11 °C 33856.6 hPa ENE 9 km/h 9 km/h 88 % 0 mm
14:19 -9.9 °C -11 °C 33856.6 hPa ENE 9 km/h 9 km/h 88 % 0 mm
14:24 -9.9 °C -11 °C 33856.6 hPa ENE 9 km/h 9 km/h 88 % 0 mm
14:29 -9.9 °C -11 °C 33856.6 hPa ENE 9 km/h 9 km/h 88 % 0 mm
14:34 -9.9 °C -11 °C 33856.6 hPa ENE 9 km/h 9 km/h 88 % 0 mm
14:39 -9.9 °C -11 °C 33856.6 hPa ENE 9 km/h 9 km/h 88 % 0 mm
14:44 -9.9 °C -11 °C 33856.6 hPa ENE 9 km/h 9 km/h 88 % 0 mm
14:49 -9.9 °C -11 °C 33856.6 hPa ENE 9 km/h 9 km/h 88 % 0 mm
14:54 -9.9 °C -11 °C 33856.6 hPa ENE 9 km/h 9 km/h 88 % 0 mm
14:59 -9.9 °C -11 °C 33856.6 hPa ENE 9 km/h 9 km/h 88 % 0 mm
15:04 -9.9 °C -11 °C 33856.6 hPa ENE 9 km/h 9 km/h 88 % 0 mm
15:09 -9.9 °C -11 °C 33856.6 hPa ENE 9 km/h 9 km/h 88 % 0 mm
15:14 -9.9 °C -11 °C 33856.6 hPa ENE 9 km/h 9 km/h 88 % 0 mm
15:19 -9.9 °C -11 °C 33856.6 hPa ENE 9 km/h 9 km/h 88 % 0 mm
15:24 -9.9 °C -11 °C 33856.6 hPa ENE 9 km/h 9 km/h 88 % 0 mm
15:29 -9.9 °C -11 °C 33856.6 hPa ENE 9 km/h 9 km/h 88 % 0 mm
15:34 -9.9 °C -11 °C 33856.6 hPa ENE 9 km/h 9 km/h 88 % 0 mm
15:39 -9.9 °C -11 °C 33856.6 hPa ENE 9 km/h 9 km/h 88 % 0 mm
15:44 -9.9 °C -11 °C 33856.6 hPa ENE 9 km/h 9 km/h 88 % 0 mm
15:49 -9.9 °C -11 °C 33856.6 hPa ENE 9 km/h 9 km/h 88 % 0 mm
15:54 -9.9 °C -11 °C 33856.6 hPa ENE 9 km/h 9 km/h 88 % 0 mm
15:59 -9.9 °C -11 °C 33856.6 hPa ENE 9 km/h 9 km/h 88 % 0 mm
16:04 -9.9 °C -11 °C 33856.6 hPa ENE 9 km/h 9 km/h 88 % 0 mm
16:09 -9.9 °C -11 °C 33856.6 hPa ENE 9 km/h 9 km/h 88 % 0 mm
16:14 -9.9 °C -11 °C 33856.6 hPa ENE 9 km/h 9 km/h 88 % 0 mm
16:20 -9.6 °C -11.2 °C 33890.5 hPa NE 9 km/h 9 km/h 83 % 0 mm
16:25 -9.4 °C -10.9 °C 33890.5 hPa ESE 9 km/h 9 km/h 84 % 0 mm
16:30 -9.4 °C -10.9 °C 33890.5 hPa NNE 6 km/h 6 km/h 84 % 218.44 mm
16:35 -9.4 °C -10.9 °C 33890.5 hPa ESE 6 km/h 6 km/h 84 % 218.44 mm
16:40 -9.1 °C -10.4 °C 33924.3 hPa South 4.2 km/h   85 % 218.44 mm
16:45 -8.8 °C -10.3 °C 33924.3 hPa South 9 km/h 9 km/h 84 % 218.44 mm
16:50 -8.7 °C -10.2 °C 33924.3 hPa WSW 6 km/h 6.3 km/h 84 % 218.44 mm
16:55 -8.6 °C -10.2 °C 33924.3 hPa WSW 3.1 km/h 3.1 km/h 83 % 218.44 mm
17:00 -8.4 °C -9.9 °C 33924.3 hPa Calm     84 % 218.44 mm
17:05 -8.4 °C -9.9 °C 33924.3 hPa SSE 3.1 km/h   84 % 218.44 mm
17:10 -8.4 °C -10 °C 33924.3 hPa SW 6 km/h 6 km/h 83 % 218.44 mm
17:15 -8.3 °C -9.8 °C 33924.3 hPa South 6 km/h 6 km/h 84 % 218.44 mm
17:20 -8.3 °C -9.8 °C 33924.3 hPa SSW 3.1 km/h   84 % 218.44 mm
17:25 -8.2 °C -9.8 °C 33924.3 hPa SW 6.3 km/h 6.3 km/h 84 % 218.44 mm
17:30 -8.2 °C -9.8 °C 33924.3 hPa SW 9 km/h 9 km/h 83 % 0 mm
17:35 -7.8 °C -9.3 °C 33924.3 hPa SW 6 km/h 6 km/h 84 % 0 mm
17:40 -7.6 °C -9.3 °C 33890.5 hPa SW 15 km/h 15 km/h 82 % 0 mm
17:45 -7.4 °C -9.1 °C 33890.5 hPa West 6 km/h 6 km/h 83 % 0 mm
17:50 -7.3 °C -9.2 °C 33890.5 hPa South 11.9 km/h 11.9 km/h 81 % 0 mm
17:55 -7.1 °C -9.1 °C 33890.5 hPa SW 9 km/h 9 km/h 80 % 0 mm
18:00 -7.1 °C -9.1 °C 33890.5 hPa WNW 8 km/h 8 km/h 79 % 0 mm
18:05 -7 °C -9.2 °C 33890.5 hPa SSE 6 km/h 6 km/h 78 % 0 mm
18:10 -7 °C -9.3 °C 33890.5 hPa SE 3.1 km/h   77 % 0 mm
18:15 -6.8 °C -9.1 °C 33890.5 hPa West 6 km/h 6 km/h 77 % 0 mm
18:20 -6.9 °C -9.3 °C 33890.5 hPa WNW 6 km/h 6 km/h 76 % 0 mm
18:25 -6.8 °C -9.3 °C 33890.5 hPa NNW 3.1 km/h   75 % 0 mm
18:30 -6.7 °C -9.3 °C 33890.5 hPa West 4.2 km/h   74 % 0 mm
18:35 -6.6 °C -9.5 °C 33890.5 hPa West 3.7 km/h 3.7 km/h 72 % 0 mm
18:40 -6.4 °C -9.3 °C 33856.6 hPa WSW 6.3 km/h   72 % 0 mm
18:45 -6.4 °C -9.5 °C 33856.6 hPa NW 3.1 km/h 3.1 km/h 71 % 0 mm
18:50 -6.6 °C -9.7 °C 33856.6 hPa NW 4.2 km/h   70 % 0 mm
18:55 -6.6 °C -9.8 °C 33890.5 hPa NNE 6.3 km/h 6.3 km/h 70 % 0 mm
19:00 -6.8 °C -9.8 °C 33890.5 hPa NE 9 km/h 9 km/h 71 % 0 mm
19:05 -6.9 °C -9.9 °C 33890.5 hPa NNE 6 km/h 6 km/h 71 % 0 mm
19:10 -6.9 °C -9.9 °C 33890.5 hPa NE 6 km/h 6 km/h 71 % 0 mm
19:15 -6.9 °C -10.1 °C 33890.5 hPa NE 3.1 km/h 3.1 km/h 70 % 0 mm
19:20 -6.8 °C -9.8 °C 33890.5 hPa NW 3.1 km/h   71 % 0 mm
19:25 -6.8 °C -9.9 °C 33856.6 hPa ENE 3.1 km/h 3.1 km/h 70 % 0 mm
19:30 -6.9 °C -10.1 °C 33856.6 hPa ESE 8.5 km/h   69 % 0 mm
19:31 -6.9 °C -10.1 °C 33856.6 hPa ESE 9 km/h 9 km/h 69 % 0 mm
19:35 -9.4 °C -11.2 °C 33958.2 hPa NE 5.1 km/h 7.7 km/h 82 % 0 mm
19:36 -6.9 °C -10.1 °C 33856.6 hPa NNE 6 km/h 6 km/h 70 % 0 mm
19:41 -6.9 °C -10.2 °C 33890.5 hPa NNE 3.1 km/h 3.1 km/h 69 % 0 mm
19:45 -9.4 °C -11.1 °C 33958.2 hPa NNE 2.6 km/h 5.1 km/h 83 % 0 mm
19:46 -6.9 °C -10 °C 33890.5 hPa West 3.1 km/h 3.1 km/h 70 % 0 mm
19:51 -6.9 °C -10.1 °C 33890.5 hPa ESE 9 km/h 9 km/h 69 % 0 mm
19:55 -9.4 °C -10.9 °C 33992.1 hPa Calm   2.6 km/h 84 % 0 mm
19:56 -7 °C -10.1 °C 33890.5 hPa East 9 km/h 9 km/h 70 % 0 mm
20:01 -7.1 °C -10.2 °C 33890.5 hPa SE 6 km/h 6 km/h 70 % 0 mm
20:05 -9.7 °C -11.3 °C 33992.1 hPa WNW 2.6 km/h 5.1 km/h 83 % 0 mm
20:06 -7.1 °C -10.1 °C 33890.5 hPa SW 6.3 km/h   71 % 0 mm
20:11 -7.1 °C -9.9 °C 33890.5 hPa SW 15 km/h 15 km/h 72 % 0 mm
20:15 -9.6 °C -11.1 °C 33992.1 hPa WSW 2.6 km/h 5.1 km/h 84 % 0 mm
20:16 -7.1 °C -9.9 °C 33890.5 hPa South 6 km/h 6 km/h 72 % 0 mm
20:21 -7.2 °C -10.1 °C 33890.5 hPa SW 12.7 km/h 12.7 km/h 72 % 0 mm
20:25 -9.6 °C -11.1 °C 33958.2 hPa WSW 2.6 km/h 5.1 km/h 84 % 0 mm
20:26 -7.2 °C -10.1 °C 33890.5 hPa SW 9 km/h 9 km/h 72 % 0 mm
20:31 -7.3 °C -9.9 °C 33890.5 hPa SW 8.5 km/h 8.5 km/h 74 % 0 mm
20:35 -9.9 °C -11.4 °C 33992.1 hPa WSW 5.1 km/h 7.7 km/h 84 % 0 mm
20:36 -7.4 °C -10.1 °C 33890.5 hPa SSW 6 km/h 6 km/h 74 % 0 mm
20:41 -7.6 °C -10.2 °C 33924.3 hPa WSW 6.8 km/h 6.8 km/h 74 % 0 mm
20:45 -10 °C -11.5 °C 33992.1 hPa SW 5.1 km/h 7.7 km/h 84 % 0 mm
20:46 -7.7 °C -10.2 °C 33924.3 hPa Calm     75 % 0 mm
20:51 -7.8 °C -10.3 °C 33924.3 hPa West 3.1 km/h 3.1 km/h 75 % 0 mm
20:55 -10.1 °C -11.4 °C 33992.1 hPa SW 5.1 km/h 7.7 km/h 85 % 0 mm
20:56 -7.9 °C -10.4 °C 33924.3 hPa WNW 3.7 km/h 3.7 km/h 75 % 0 mm
21:01 -7.9 °C -10.4 °C 33924.3 hPa West 6 km/h 6 km/h 75 % 0 mm
21:05 -9.9 °C -11.2 °C 33958.2 hPa SW 2.6 km/h 5.1 km/h 86 % 0 mm
21:06 -8 °C -10.5 °C 33924.3 hPa West 6 km/h 6 km/h 75 % 0 mm
21:11 -8 °C -10.5 °C 33924.3 hPa WSW 6.3 km/h 6.3 km/h 75 % 0 mm
21:15 -9.9 °C -11.2 °C 33958.2 hPa WSW 2.6 km/h 5.1 km/h 86 % 0 mm
21:16 -8.1 °C -10.6 °C 33924.3 hPa West 9 km/h 9 km/h 75 % 0 mm
21:21 -8.1 °C -10.5 °C 33924.3 hPa West 9 km/h 9 km/h 76 % 0 mm
21:25 -10.1 °C -11.2 °C 33958.2 hPa Calm   5.1 km/h 87 % 0 mm
21:26 -8.2 °C -10.6 °C 33890.5 hPa WSW 6.8 km/h 6.8 km/h 76 % 0 mm
21:31 -8.3 °C -10.7 °C 33890.5 hPa WSW 6 km/h 6 km/h 76 % 0 mm
21:35 -10.1 °C -11.3 °C 33958.2 hPa ENE 2.6 km/h 5.1 km/h 87 % 0 mm
21:36 -8.4 °C -10.5 °C 33890.5 hPa WSW 9 km/h 9 km/h 78 % 0 mm
21:41 -8.4 °C -10.6 °C 33924.3 hPa West 9 km/h 9 km/h 78 % 0 mm
21:45 -10.2 °C -11.5 °C 33958.2 hPa SW 5.1 km/h 5.1 km/h 86 % 0 mm
21:46 -8.5 °C -10.7 °C 33924.3 hPa SW 6 km/h 6 km/h 78 % 0 mm
21:51 -8.5 °C -10.5 °C 33924.3 hPa Calm     79 % 0 mm
21:55 -10.3 °C -11.6 °C 33958.2 hPa SW 5.1 km/h 5.1 km/h 86 % 0 mm
21:56 -8.6 °C -10.6 °C 33924.3 hPa West 3.1 km/h   79 % 0 mm
22:01 -8.6 °C -10.7 °C 33924.3 hPa WNW 6 km/h 6 km/h 79 % 0 mm
22:05 -10.3 °C -11.6 °C 33958.2 hPa WSW 2.6 km/h 7.7 km/h 86 % 0 mm
22:06 -8.6 °C -10.7 °C 33924.3 hPa West 6 km/h 6 km/h 79 % 0 mm
22:11 -8.6 °C -10.7 °C 33924.3 hPa West 6 km/h 6 km/h 79 % 0 mm
22:15 -10.3 °C -11.4 °C 33958.2 hPa WSW 2.6 km/h 5.1 km/h 87 % 0 mm
22:16 -8.6 °C -10.7 °C 33924.3 hPa West 3.1 km/h   79 % 0 mm
22:21 -8.7 °C -10.7 °C 33924.3 hPa NW 3.1 km/h   79 % 0 mm
22:25 -10.2 °C -11.5 °C 33992.1 hPa WSW 5.1 km/h 5.1 km/h 86 % 0 mm
22:26 -8.6 °C -10.7 °C 33924.3 hPa Calm     79 % 0 mm
22:31 -8.7 °C -10.6 °C 33924.3 hPa Calm     80 % 0 mm
22:35 -10.3 °C -11.6 °C 33958.2 hPa WSW 2.6 km/h 5.1 km/h 86 % 0 mm
22:36 -8.7 °C -10.6 °C 33924.3 hPa NW 3.1 km/h   80 % 0 mm
22:41 -8.7 °C -10.7 °C 33958.2 hPa Calm     80 % 0 mm
22:45 -10.4 °C -11.7 °C 33958.2 hPa West 5.1 km/h 5.1 km/h 86 % 0 mm
22:46 -8.7 °C -10.7 °C 33958.2 hPa WNW 6 km/h 6 km/h 79 % 0 mm
22:51 -8.7 °C -10.7 °C 33958.2 hPa West 3.1 km/h   80 % 0 mm
22:55 -10.4 °C -11.7 °C 33958.2 hPa WSW 2.6 km/h 5.1 km/h 86 % 0 mm
22:56 -8.8 °C -10.7 °C 33958.2 hPa WNW 3.1 km/h   80 % 0 mm
23:01 -8.8 °C -10.7 °C 33958.2 hPa WNW 3.1 km/h 3.1 km/h 80 % 0 mm
23:05 -10.4 °C -11.6 °C 33958.2 hPa WSW 2.6 km/h 2.6 km/h 87 % 0 mm
23:06 -8.8 °C -10.6 °C 33958.2 hPa WNW 6 km/h 6 km/h 81 % 0 mm
23:11 -8.8 °C -10.6 °C 33958.2 hPa West 9 km/h 9 km/h 81 % 0 mm
23:15 -10.7 °C -12.1 °C 33958.2 hPa SW 5.1 km/h 7.7 km/h 85 % 0 mm
23:16 -8.8 °C -10.6 °C 33958.2 hPa West 6 km/h 6 km/h 81 % 0 mm
23:21 -8.8 °C -10.6 °C 33958.2 hPa West 6.3 km/h 6.3 km/h 81 % 0 mm
23:25 -10.7 °C -12.1 °C 33958.2 hPa Calm   5.1 km/h 85 % 0 mm
23:26 -8.7 °C -10.5 °C 33958.2 hPa West 6 km/h 6 km/h 81 % 0 mm
23:31 -8.8 °C -10.6 °C 33958.2 hPa West 7.6 km/h 7.6 km/h 81 % 0 mm
23:35 -10.8 °C -12.1 °C 33992.1 hPa West 2.6 km/h 5.1 km/h 85 % 0 mm
23:36 -8.7 °C -10.5 °C 33958.2 hPa WSW 11.9 km/h 11.9 km/h 81 % 0 mm
23:41 -8.8 °C -10.6 °C 33958.2 hPa WSW 6.8 km/h 6.8 km/h 81 % 0 mm
23:45 -10.9 °C -12.3 °C 33992.1 hPa WSW 5.1 km/h 7.7 km/h 85 % 0 mm
23:46 -8.8 °C -10.7 °C 33958.2 hPa WSW 6.3 km/h 6.3 km/h 81 % 0 mm
23:51 -8.9 °C -10.7 °C 33958.2 hPa SW 6 km/h 6 km/h 82 % 0 mm
23:55 -10.9 °C -12.3 °C 33958.2 hPa WSW 5.1 km/h 5.1 km/h 85 % 0 mm
23:56 -9 °C -10.8 °C 33958.2 hPa WSW 9 km/h 9 km/h 81 % 0 mm
Meteo Sesrovires
Elogis d' Weather Underground - 1.5 mb

Guio original per  Jim McMurry - jmcmurry@mwt.net Adaptat per a la plantilla per  Wim van der Kuil - Leuven-Template.eu

Trobareu la nostra informacio del temps tambe a:

Weather Underground

AWEKAS